Time;durP1;ratioP1;P1;durP2;ratioP2;P2;SDS_P1;SDS_P2;PMS_P1;PMS_P2;Temp;Humidity;BMP_temperature;BMP_pressure;BME280_temperature;BME280_humidity;BME280_pressure;Samples;Min_cycle;Max_cycle;Signal;HPM_P1;HPM_P2
2023/01/31 00:00:15;;;;;;;;;;;2.30;99.90;;;;;;5021853;28;19917;-64
2023/01/31 00:02:41;;;;;;;;;;;2.30;99.90;;;;;;5026115;28;19917;-62
2023/01/31 00:05:07;;;;;;;;;;;2.30;99.90;;;;;;5033050;28;19917;-63
2023/01/31 00:07:32;;;;;;;;;;;2.30;99.90;;;;;;5021943;28;19914;-63
2023/01/31 00:09:58;;;;;;;;;;;2.40;99.90;;;;;;5029365;28;20281;-63
2023/01/31 00:12:23;;;;;;;;;;;2.40;99.90;;;;;;5028569;28;20004;-63
2023/01/31 00:14:49;;;;;;;;;;;2.40;99.90;;;;;;5032259;28;19914;-63
2023/01/31 00:17:14;;;;;;;;;;;2.50;99.90;;;;;;5028004;28;20365;-63
2023/01/31 00:19:41;;;;;;;;;;;2.60;99.90;;;;;;5019614;28;19924;-63
2023/01/31 00:22:09;;;;;;;;;;;2.60;99.90;;;;;;5029463;28;20424;-63
2023/01/31 00:24:35;;;;;;;;;;;2.60;99.90;;;;;;5027205;28;20019;-64
2023/01/31 00:27:00;;;;;;;;;;;2.60;99.90;;;;;;5024319;28;20384;-64
2023/01/31 00:29:26;;;;;;;;;;;2.60;99.90;;;;;;5025358;28;19934;-64
2023/01/31 00:31:52;;;;;;;;;;;2.50;99.90;;;;;;5017399;28;19913;-63
2023/01/31 00:34:18;;;;;;;;;;;2.50;99.90;;;;;;5027922;28;19920;-64
2023/01/31 00:36:43;;;;;;;;;;;2.50;99.90;;;;;;5017574;28;20290;-64
2023/01/31 00:39:09;;;;;;;;;;;2.50;99.90;;;;;;5024515;28;20017;-63
2023/01/31 00:41:36;;;;;;;;;;;2.40;99.90;;;;;;5022187;28;19921;-64
2023/01/31 00:44:01;;;;;;;;;;;2.40;99.90;;;;;;5021948;28;19921;-63
2023/01/31 00:46:27;;;;;;;;;;;2.30;99.90;;;;;;5021914;28;20399;-63
2023/01/31 00:48:55;;;;;;;;;;;2.20;99.90;;;;;;5016937;28;19917;-63
2023/01/31 00:51:21;;;;;;;;;;;2.40;99.90;;;;;;5022878;28;19916;-63
2023/01/31 00:53:47;;;;;;;;;;;2.50;99.90;;;;;;5022629;28;20018;-63
2023/01/31 00:56:14;;;;;;;;;;;2.40;99.90;;;;;;5027676;28;19913;-63
2023/01/31 00:58:40;;;;;;;;;;;2.40;99.90;;;;;;5020258;28;20300;-64
2023/01/31 01:01:09;;;;;;;;;;;2.40;99.90;;;;;;5023327;28;20296;-63
2023/01/31 01:03:35;;;;;;;;;;;2.50;99.90;;;;;;5024286;28;19917;-63
2023/01/31 01:06:01;;;;;;;;;;;2.60;99.90;;;;;;5025680;28;19960;-63
2023/01/31 01:08:28;;;;;;;;;;;2.50;99.90;;;;;;5025370;28;19994;-63
2023/01/31 01:10:53;;;;;;;;;;;2.40;99.90;;;;;;5018182;28;19921;-64
2023/01/31 01:13:22;;;;;;;;;;;2.30;99.90;;;;;;5016002;28;19917;-63
2023/01/31 01:15:47;;;;;;;;;;;2.20;99.90;;;;;;5031333;28;19956;-63
2023/01/31 01:18:14;;;;;;;;;;;2.20;99.90;;;;;;5031590;28;19963;-63
2023/01/31 01:20:40;;;;;;;;;;;2.20;99.90;;;;;;5024070;28;20326;-64
2023/01/31 01:23:05;;;;;;;;;;;2.30;99.90;;;;;;5026631;28;20273;-64
2023/01/31 01:25:43;;;;;;;;;;;2.30;99.90;;;;;;5026510;28;20016;-64
2023/01/31 01:28:09;;;;;;;;;;;2.30;99.90;;;;;;5021615;28;19983;-64
2023/01/31 01:30:36;;;;;;;;;;;2.40;99.90;;;;;;5024956;28;20001;-64
2023/01/31 01:33:02;;;;;;;;;;;2.50;99.90;;;;;;5026737;28;19913;-63
2023/01/31 01:35:27;;;;;;;;;;;2.60;99.90;;;;;;5029364;28;19913;-64
2023/01/31 01:37:56;;;;;;;;;;;2.70;99.90;;;;;;5016340;28;19963;-64
2023/01/31 01:40:24;;;;;;;;;;;2.80;99.90;;;;;;5006780;28;19913;-64
2023/01/31 01:42:50;;;;;;;;;;;2.90;99.90;;;;;;5017273;28;20250;-64
2023/01/31 01:45:16;;;;;;;;;;;2.90;99.90;;;;;;5019809;28;19917;-64
2023/01/31 01:47:43;;;;;;;;;;;3.00;99.90;;;;;;5022182;28;19929;-63
2023/01/31 01:50:26;;;;;;;;;;;3.20;99.90;;;;;;5031077;28;20037;-63
2023/01/31 01:53:07;;;;;;;;;;;3.40;99.90;;;;;;5025495;28;19914;-64
2023/01/31 01:55:33;;;;;;;;;;;3.60;99.90;;;;;;5016814;28;19922;-64
2023/01/31 01:58:05;;;;;;;;;;;3.70;99.90;;;;;;5027438;28;20014;-63
2023/01/31 02:00:32;;;;;;;;;;;3.80;99.90;;;;;;5027693;28;19975;-63
2023/01/31 02:02:59;;;;;;;;;;;4.00;99.90;;;;;;5025150;28;19920;-64
2023/01/31 02:05:30;;;;;;;;;;;4.00;99.90;;;;;;5022918;28;19913;-64
2023/01/31 02:07:55;;;;;;;;;;;4.10;99.90;;;;;;5028943;28;19924;-64
2023/01/31 02:10:47;;;;;;;;;;;4.20;99.90;;;;;;5015665;28;19921;-64
2023/01/31 02:13:17;;;;;;;;;;;4.40;99.90;;;;;;4990414;28;19995;-64
2023/01/31 02:15:43;;;;;;;;;;;4.40;99.90;;;;;;5026487;28;19913;-64
2023/01/31 02:18:12;;;;;;;;;;;4.40;99.90;;;;;;5027215;28;20008;-63
2023/01/31 02:20:40;;;;;;;;;;;4.50;99.90;;;;;;5027013;28;20277;-64
2023/01/31 02:23:35;;;;;;;;;;;4.60;99.90;;;;;;5029244;28;19963;-64
2023/01/31 02:26:18;;;;;;;;;;;4.70;99.90;;;;;;5020994;28;20388;-64
2023/01/31 02:29:02;;;;;;;;;;;4.70;99.90;;;;;;5017620;28;19913;-64
2023/01/31 02:31:34;;;;;;;;;;;4.70;99.90;;;;;;5026839;28;19917;-64
2023/01/31 02:34:09;;;;;;;;;;;4.80;99.90;;;;;;5030299;28;20273;-64
2023/01/31 02:37:00;;;;;;;;;;;4.80;99.90;;;;;;5028563;28;20381;-65
2023/01/31 02:39:40;;;;;;;;;;;4.80;99.90;;;;;;5023273;28;20353;-63
2023/01/31 02:42:09;;;;;;;;;;;4.80;99.90;;;;;;5026400;28;20406;-65
2023/01/31 02:44:59;;;;;;;;;;;4.80;99.90;;;;;;5023275;28;19925;-63
2023/01/31 02:47:37;;;;;;;;;;;4.80;99.90;;;;;;5022296;28;19956;-64
2023/01/31 02:50:08;;;;;;;;;;;4.80;99.90;;;;;;5020482;28;20373;-65
2023/01/31 02:52:39;;;;;;;;;;;4.80;99.90;;;;;;5023321;28;19920;-65
2023/01/31 02:58:07;;;;;;;;;;;4.90;99.90;;;;;;5025458;28;20014;-64
2023/01/31 03:00:34;;;;;;;;;;;4.80;99.90;;;;;;5021750;28;19913;-64
2023/01/31 03:03:00;;;;;;;;;;;4.80;99.90;;;;;;5022713;28;20007;-64
2023/01/31 03:05:26;;;;;;;;;;;4.80;99.90;;;;;;5023472;28;19917;-64
2023/01/31 03:07:53;;;;;;;;;;;4.80;99.90;;;;;;5026972;28;19920;-64
2023/01/31 03:10:18;;;;;;;;;;;4.80;99.90;;;;;;5026762;28;19925;-64
2023/01/31 03:12:50;;;;;;;;;;;4.70;99.90;;;;;;5031546;28;20266;-64
2023/01/31 03:17:30;;;;;;;;;;;4.70;99.90;;;;;;5033349;28;20415;-64
2023/01/31 03:18:16;;;;;;;;;;;4.60;99.90;;;;;;5022554;28;19913;-64
2023/01/31 03:20:51;;;;;;;;;;;4.60;99.90;;;;;;5018971;28;19913;-64
2023/01/31 03:23:18;;;;;;;;;;;4.40;99.90;;;;;;5025611;28;19988;-63
2023/01/31 03:25:43;;;;;;;;;;;4.30;99.90;;;;;;5024468;28;21175;-63
2023/01/31 03:28:11;;;;;;;;;;;4.30;99.90;;;;;;5021295;28;19913;-64
2023/01/31 03:31:00;;;;;;;;;;;4.30;99.90;;;;;;5018896;28;19933;-64
2023/01/31 03:33:29;;;;;;;;;;;4.30;99.90;;;;;;5031180;28;19917;-65
2023/01/31 03:36:13;;;;;;;;;;;4.20;99.90;;;;;;5022908;28;19920;-64
2023/01/31 03:38:52;;;;;;;;;;;4.10;99.90;;;;;;5025389;28;19913;-64
2023/01/31 03:41:23;;;;;;;;;;;4.20;99.90;;;;;;5028052;28;19913;-64
2023/01/31 03:43:57;;;;;;;;;;;4.10;99.90;;;;;;5023573;28;19944;-64
2023/01/31 03:46:42;;;;;;;;;;;4.10;99.90;;;;;;5027908;28;19914;-64
2023/01/31 03:49:09;;;;;;;;;;;4.10;99.90;;;;;;5019181;28;19918;-63
2023/01/31 03:51:36;;;;;;;;;;;4.00;99.90;;;;;;5028578;28;19913;-63
2023/01/31 03:54:07;;;;;;;;;;;4.00;99.90;;;;;;5028683;28;19933;-63
2023/01/31 03:56:39;;;;;;;;;;;4.00;99.90;;;;;;5026269;28;19920;-63
2023/01/31 03:59:10;;;;;;;;;;;4.10;99.90;;;;;;5027217;28;20361;-66
2023/01/31 04:01:38;;;;;;;;;;;4.20;99.90;;;;;;5021049;28;19967;-65
2023/01/31 04:04:11;;;;;;;;;;;4.30;99.90;;;;;;5027203;28;20359;-64
2023/01/31 04:06:37;;;;;;;;;;;4.30;99.90;;;;;;5021195;28;20312;-63
2023/01/31 04:09:03;;;;;;;;;;;4.40;99.90;;;;;;5031185;28;20368;-64
2023/01/31 04:11:34;;;;;;;;;;;4.40;99.90;;;;;;5025482;28;19924;-66
2023/01/31 04:14:03;;;;;;;;;;;4.40;99.90;;;;;;5030498;28;19913;-64
2023/01/31 04:16:28;;;;;;;;;;;4.50;99.90;;;;;;5011992;28;19954;-64
2023/01/31 04:18:55;;;;;;;;;;;4.60;99.90;;;;;;5020696;28;19913;-66
2023/01/31 04:21:21;;;;;;;;;;;4.70;99.90;;;;;;5019203;28;19914;-64
2023/01/31 04:23:47;;;;;;;;;;;4.90;99.90;;;;;;5031133;28;19917;-64
2023/01/31 04:26:13;;;;;;;;;;;4.90;99.90;;;;;;5027721;28;19932;-64
2023/01/31 04:28:39;;;;;;;;;;;4.90;99.90;;;;;;5011913;28;19913;-63
2023/01/31 04:31:05;;;;;;;;;;;5.00;99.90;;;;;;5018117;28;19920;-64
2023/01/31 04:33:30;;;;;;;;;;;5.00;99.90;;;;;;5003147;28;20282;-63
2023/01/31 04:35:56;;;;;;;;;;;5.00;99.90;;;;;;5027604;28;19921;-64
2023/01/31 04:38:22;;;;;;;;;;;5.00;99.90;;;;;;5013248;28;19968;-64
2023/01/31 04:40:47;;;;;;;;;;;5.00;99.90;;;;;;5017949;28;19917;-64
2023/01/31 04:43:13;;;;;;;;;;;5.00;99.90;;;;;;5037788;23;20016;-68
2023/01/31 04:45:39;;;;;;;;;;;5.10;99.90;;;;;;5041432;28;19960;-68
2023/01/31 04:48:05;;;;;;;;;;;5.10;99.90;;;;;;5043005;28;20008;-68
2023/01/31 04:50:30;;;;;;;;;;;5.30;99.90;;;;;;5044459;28;19929;-70
2023/01/31 04:52:56;;;;;;;;;;;5.30;99.90;;;;;;5040551;28;19988;-69
2023/01/31 04:55:21;;;;;;;;;;;5.40;99.90;;;;;;5038833;28;20622;-68
2023/01/31 04:57:47;;;;;;;;;;;5.50;99.90;;;;;;5040862;28;19913;-68
2023/01/31 05:00:13;;;;;;;;;;;5.50;99.90;;;;;;5047908;28;19971;-68
2023/01/31 05:02:39;;;;;;;;;;;5.60;99.90;;;;;;5042366;28;20336;-67
2023/01/31 05:05:04;;;;;;;;;;;5.70;99.90;;;;;;5038330;28;19920;-68
2023/01/31 05:07:30;;;;;;;;;;;5.60;99.90;;;;;;5035818;28;19914;-68
2023/01/31 05:09:55;;;;;;;;;;;5.70;99.90;;;;;;5035065;28;19921;-68
2023/01/31 05:12:21;;;;;;;;;;;5.70;99.90;;;;;;5044212;28;19913;-68
2023/01/31 05:14:47;;;;;;;;;;;5.70;99.90;;;;;;5043564;28;19913;-69
2023/01/31 05:17:12;;;;;;;;;;;5.70;99.90;;;;;;5048552;28;20315;-68
2023/01/31 05:19:38;;;;;;;;;;;5.70;99.90;;;;;;5039404;28;19920;-68
2023/01/31 05:22:03;;;;;;;;;;;5.70;99.90;;;;;;5046653;28;20372;-68
2023/01/31 05:24:31;;;;;;;;;;;5.70;99.90;;;;;;5049892;28;20011;-68
2023/01/31 05:26:57;;;;;;;;;;;5.80;99.90;;;;;;5045618;28;19913;-68
2023/01/31 05:29:32;;;;;;;;;;;5.90;99.90;;;;;;5037641;28;19920;-68
2023/01/31 05:31:59;;;;;;;;;;;5.80;99.90;;;;;;5037594;28;19967;-68
2023/01/31 05:34:25;;;;;;;;;;;5.70;99.90;;;;;;5038897;28;19920;-68
2023/01/31 05:36:51;;;;;;;;;;;5.70;99.90;;;;;;5046447;28;19913;-69
2023/01/31 05:39:17;;;;;;;;;;;5.80;99.90;;;;;;5047736;28;19912;-69
2023/01/31 05:41:42;;;;;;;;;;;5.80;99.90;;;;;;5048611;28;19912;-68
2023/01/31 05:44:08;;;;;;;;;;;5.80;99.90;;;;;;5038901;28;20407;-68
2023/01/31 05:46:33;;;;;;;;;;;5.90;99.90;;;;;;5041984;28;20399;-68
2023/01/31 05:48:59;;;;;;;;;;;5.90;99.90;;;;;;5038535;28;19921;-69
2023/01/31 05:51:24;;;;;;;;;;;5.90;99.90;;;;;;5037850;28;19945;-69
2023/01/31 05:53:50;;;;;;;;;;;6.00;99.90;;;;;;5050601;28;19912;-68
2023/01/31 05:56:16;;;;;;;;;;;6.00;99.90;;;;;;5044539;28;19967;-68
2023/01/31 05:58:41;;;;;;;;;;;6.00;99.90;;;;;;5045011;28;19916;-69
2023/01/31 06:01:07;;;;;;;;;;;6.10;99.90;;;;;;5048442;28;19958;-70
2023/01/31 06:03:33;;;;;;;;;;;6.00;99.90;;;;;;5036785;28;19913;-69
2023/01/31 06:05:58;;;;;;;;;;;6.00;99.90;;;;;;5039864;28;19931;-68
2023/01/31 06:08:24;;;;;;;;;;;6.00;99.90;;;;;;5047550;28;20000;-68
2023/01/31 06:10:49;;;;;;;;;;;6.00;99.90;;;;;;5044928;28;20011;-68
2023/01/31 06:13:15;;;;;;;;;;;5.90;99.90;;;;;;5037892;28;19913;-68
2023/01/31 06:15:43;;;;;;;;;;;5.90;99.90;;;;;;5040124;28;19912;-68
2023/01/31 06:18:09;;;;;;;;;;;5.90;99.90;;;;;;5039552;28;20361;-69
2023/01/31 06:20:35;;;;;;;;;;;5.90;99.90;;;;;;5041860;28;19920;-68
2023/01/31 06:23:00;;;;;;;;;;;5.80;99.90;;;;;;5034465;28;20333;-69
2023/01/31 06:25:26;;;;;;;;;;;5.80;99.90;;;;;;5031012;28;19920;-68
2023/01/31 06:27:52;;;;;;;;;;;5.70;99.90;;;;;;5040974;28;19977;-68
2023/01/31 06:30:17;;;;;;;;;;;5.60;99.90;;;;;;5039303;28;19944;-68
2023/01/31 06:32:43;;;;;;;;;;;5.60;99.90;;;;;;5046620;28;19924;-69
2023/01/31 06:35:08;;;;;;;;;;;5.60;99.90;;;;;;5037756;28;20008;-68
2023/01/31 06:37:34;;;;;;;;;;;5.70;99.90;;;;;;5045064;28;19913;-68
2023/01/31 06:39:59;;;;;;;;;;;5.70;99.90;;;;;;5036668;28;20356;-68
2023/01/31 06:42:25;;;;;;;;;;;5.80;99.90;;;;;;5038002;28;19919;-68
2023/01/31 06:44:54;;;;;;;;;;;5.80;99.90;;;;;;5040871;28;19920;-67
2023/01/31 06:47:23;;;;;;;;;;;5.80;99.90;;;;;;5044021;28;20387;-69
2023/01/31 06:49:49;;;;;;;;;;;5.70;99.90;;;;;;5048062;28;19923;-68
2023/01/31 06:52:14;;;;;;;;;;;5.80;99.90;;;;;;5039450;28;19913;-68
2023/01/31 06:54:40;;;;;;;;;;;5.80;99.90;;;;;;5044078;28;20395;-68
2023/01/31 06:57:06;;;;;;;;;;;5.90;99.90;;;;;;5046590;28;19913;-68
2023/01/31 06:59:32;;;;;;;;;;;5.90;99.90;;;;;;5044712;28;20333;-67
2023/01/31 07:01:57;;;;;;;;;;;5.90;99.90;;;;;;5046438;28;19974;-67
2023/01/31 07:04:23;;;;;;;;;;;5.90;99.90;;;;;;5043463;28;19920;-67
2023/01/31 07:06:48;;;;;;;;;;;5.90;99.90;;;;;;5049919;28;19917;-67
2023/01/31 07:09:14;;;;;;;;;;;5.90;99.90;;;;;;5049581;28;19921;-67
2023/01/31 07:11:39;;;;;;;;;;;5.90;99.90;;;;;;5046665;28;19913;-68
2023/01/31 07:14:05;;;;;;;;;;;6.00;99.90;;;;;;5049377;28;19913;-68
2023/01/31 07:16:30;;;;;;;;;;;6.10;99.90;;;;;;5040799;28;20027;-68
2023/01/31 07:18:56;;;;;;;;;;;6.00;99.90;;;;;;5044860;28;19917;-67
2023/01/31 07:21:22;;;;;;;;;;;6.10;99.90;;;;;;5042051;28;20007;-68
2023/01/31 07:23:48;;;;;;;;;;;6.10;99.90;;;;;;5043690;28;20004;-68
2023/01/31 07:26:14;;;;;;;;;;;6.00;99.90;;;;;;5046492;28;19920;-68
2023/01/31 07:28:39;;;;;;;;;;;6.00;99.90;;;;;;5045406;28;19924;-68
2023/01/31 07:31:05;;;;;;;;;;;6.00;99.90;;;;;;5049364;28;20070;-69
2023/01/31 07:33:32;;;;;;;;;;;5.90;99.90;;;;;;5040193;28;19917;-67
2023/01/31 07:35:59;;;;;;;;;;;5.70;99.90;;;;;;5040752;28;19917;-69
2023/01/31 07:38:25;;;;;;;;;;;5.80;99.90;;;;;;5045929;28;19920;-68
2023/01/31 07:40:50;;;;;;;;;;;5.70;99.90;;;;;;5037837;28;19917;-68
2023/01/31 07:43:16;;;;;;;;;;;5.70;99.90;;;;;;5038902;28;19967;-67
2023/01/31 07:45:42;;;;;;;;;;;5.70;99.90;;;;;;5036624;28;19928;-68
2023/01/31 07:48:08;;;;;;;;;;;5.60;99.90;;;;;;5054907;28;20374;-67
2023/01/31 07:50:33;;;;;;;;;;;5.70;99.90;;;;;;5045585;28;20299;-68
2023/01/31 07:52:59;;;;;;;;;;;5.70;99.90;;;;;;5041149;28;19992;-68
2023/01/31 07:55:28;;;;;;;;;;;5.70;99.90;;;;;;5045789;28;19919;-68
2023/01/31 07:57:54;;;;;;;;;;;5.70;99.90;;;;;;5040012;28;19913;-68
2023/01/31 08:05:48;;;;;;;;;;;5.70;99.90;;;;;;5042398;28;19920;-67
2023/01/31 08:08:14;;;;;;;;;;;5.80;99.90;;;;;;5047254;28;19913;-68
2023/01/31 08:10:39;;;;;;;;;;;5.80;99.90;;;;;;5036539;28;19928;-68
2023/01/31 08:13:05;;;;;;;;;;;5.80;99.90;;;;;;5038738;28;19913;-67
2023/01/31 08:15:31;;;;;;;;;;;5.80;99.90;;;;;;5044156;28;19913;-68
2023/01/31 08:17:57;;;;;;;;;;;5.90;99.90;;;;;;5041857;28;19971;-68
2023/01/31 08:20:22;;;;;;;;;;;5.90;99.90;;;;;;5040522;28;19944;-68
2023/01/31 08:22:48;;;;;;;;;;;5.90;99.90;;;;;;5051316;28;19912;-69
2023/01/31 08:25:13;;;;;;;;;;;6.00;99.90;;;;;;5039716;28;20351;-69
2023/01/31 08:27:39;;;;;;;;;;;6.10;99.90;;;;;;5035392;28;19940;-69
2023/01/31 08:30:05;;;;;;;;;;;6.10;99.90;;;;;;5045863;28;20345;-69
2023/01/31 08:32:30;;;;;;;;;;;6.10;99.90;;;;;;5043712;28;20296;-70
2023/01/31 08:34:56;;;;;;;;;;;6.10;99.90;;;;;;5050711;28;19912;-69
2023/01/31 08:37:22;;;;;;;;;;;6.10;99.90;;;;;;5045446;28;20008;-68
2023/01/31 08:39:47;;;;;;;;;;;6.00;99.90;;;;;;5040238;28;20032;-69
2023/01/31 08:42:13;;;;;;;;;;;6.00;99.90;;;;;;5038685;28;20642;-69
2023/01/31 08:44:38;;;;;;;;;;;6.10;99.90;;;;;;5040278;28;19925;-69
2023/01/31 08:47:04;;;;;;;;;;;6.00;99.90;;;;;;5037902;28;19919;-69
2023/01/31 08:49:29;;;;;;;;;;;6.10;99.90;;;;;;5042168;28;20376;-68
2023/01/31 08:51:55;;;;;;;;;;;6.10;99.90;;;;;;5049582;28;19916;-68
2023/01/31 08:54:21;;;;;;;;;;;6.20;99.90;;;;;;5041948;28;19967;-69
2023/01/31 08:56:46;;;;;;;;;;;6.30;99.90;;;;;;5040267;28;19940;-69
2023/01/31 08:59:12;;;;;;;;;;;6.30;99.90;;;;;;5045522;28;19913;-68
2023/01/31 09:01:37;;;;;;;;;;;6.40;99.90;;;;;;5036050;28;19913;-69
2023/01/31 09:04:03;;;;;;;;;;;6.60;99.90;;;;;;5048414;28;20414;-70
2023/01/31 09:06:28;;;;;;;;;;;6.70;99.90;;;;;;5038106;28;19917;-69
2023/01/31 09:08:55;;;;;;;;;;;6.90;99.90;;;;;;5050921;28;20324;-69
2023/01/31 09:11:21;;;;;;;;;;;7.00;99.90;;;;;;5040754;28;19917;-66
2023/01/31 09:13:50;;;;;;;;;;;7.10;99.90;;;;;;5045631;28;19920;-68
2023/01/31 09:16:15;;;;;;;;;;;7.20;99.90;;;;;;5038184;28;19913;-68
2023/01/31 09:18:41;;;;;;;;;;;7.30;99.90;;;;;;5037473;28;19912;-70
2023/01/31 09:21:08;;;;;;;;;;;7.40;99.90;;;;;;5046969;28;19920;-69
2023/01/31 09:23:34;;;;;;;;;;;7.40;99.90;;;;;;5041546;28;19921;-69
2023/01/31 09:26:00;;;;;;;;;;;7.40;99.90;;;;;;5049031;28;20413;-69
2023/01/31 09:28:25;;;;;;;;;;;7.30;99.90;;;;;;5041159;28;20387;-69
2023/01/31 09:30:54;;;;;;;;;;;7.50;99.90;;;;;;5050925;28;20375;-70
2023/01/31 09:33:20;;;;;;;;;;;7.60;99.90;;;;;;5043602;28;19917;-68
2023/01/31 09:35:56;;;;;;;;;;;7.70;99.90;;;;;;5044799;28;19984;-69
2023/01/31 09:38:22;;;;;;;;;;;7.90;99.90;;;;;;5041399;28;19912;-68
2023/01/31 09:40:48;;;;;;;;;;;8.00;99.90;;;;;;5043642;28;20339;-70
2023/01/31 09:43:14;;;;;;;;;;;8.10;99.90;;;;;;5036161;28;20388;-69
2023/01/31 09:45:43;;;;;;;;;;;8.20;99.90;;;;;;5037963;28;19960;-68
2023/01/31 09:48:12;;;;;;;;;;;8.30;99.90;;;;;;5047960;28;19913;-68
2023/01/31 09:50:44;;;;;;;;;;;8.40;99.90;;;;;;5043347;28;19982;-70
2023/01/31 09:53:13;;;;;;;;;;;8.40;99.90;;;;;;5041693;28;20119;-69
2023/01/31 09:55:58;;;;;;;;;;;8.40;99.90;;;;;;5034729;28;20285;-69
2023/01/31 09:58:29;;;;;;;;;;;8.30;99.90;;;;;;5033279;28;19920;-69
2023/01/31 10:01:17;;;;;;;;;;;8.30;99.90;;;;;;5040584;28;19971;-69
2023/01/31 10:04:12;;;;;;;;;;;8.30;99.90;;;;;;5046872;28;19913;-69
2023/01/31 10:06:52;;;;;;;;;;;8.30;99.90;;;;;;5037001;28;19913;-69
2023/01/31 10:09:39;;;;;;;;;;;8.40;99.90;;;;;;5042818;28;19990;-69
2023/01/31 10:12:26;;;;;;;;;;;8.50;99.90;;;;;;5040219;28;19917;-68
2023/01/31 10:14:54;;;;;;;;;;;8.60;99.90;;;;;;5044527;28;19912;-68
2023/01/31 10:17:25;;;;;;;;;;;8.80;99.90;;;;;;5037084;28;19917;-68
2023/01/31 10:20:06;;;;;;;;;;;8.90;99.90;;;;;;5038474;28;20364;-68
2023/01/31 10:22:45;;;;;;;;;;;8.90;99.90;;;;;;5043523;28;19913;-68
2023/01/31 10:25:16;;;;;;;;;;;8.90;99.90;;;;;;5045899;28;19951;-69
2023/01/31 10:27:54;;;;;;;;;;;9.00;99.90;;;;;;5037354;28;20000;-69
2023/01/31 10:30:22;;;;;;;;;;;9.20;99.90;;;;;;5047711;28;20073;-70
2023/01/31 10:32:54;;;;;;;;;;;9.30;99.90;;;;;;5045241;28;19919;-67
2023/01/31 10:35:24;;;;;;;;;;;9.30;99.90;;;;;;5044911;28;20372;-69
2023/01/31 10:37:52;;;;;;;;;;;9.40;99.90;;;;;;5047280;28;19913;-69
2023/01/31 10:40:33;;;;;;;;;;;9.50;99.90;;;;;;5035724;28;19913;-69
2023/01/31 10:43:14;;;;;;;;;;;9.50;99.90;;;;;;5038778;28;19963;-69
2023/01/31 10:45:40;;;;;;;;;;;9.60;99.90;;;;;;5041524;28;19931;-69
2023/01/31 10:48:17;;;;;;;;;;;9.60;99.90;;;;;;5044810;28;19913;-69
2023/01/31 10:50:42;;;;;;;;;;;9.70;99.90;;;;;;5040083;28;19931;-69
2023/01/31 10:53:35;;;;;;;;;;;9.80;99.90;;;;;;5042602;28;19912;-69
2023/01/31 10:56:05;;;;;;;;;;;10.00;99.90;;;;;;5009925;28;20392;-69
2023/01/31 10:58:31;;;;;;;;;;;9.90;99.90;;;;;;5043882;28;19993;-68
2023/01/31 11:00:57;;;;;;;;;;;9.80;99.90;;;;;;5046252;28;20015;-69
2023/01/31 11:03:22;;;;;;;;;;;9.90;99.90;;;;;;5042600;28;19920;-69
2023/01/31 11:05:52;;;;;;;;;;;10.00;99.90;;;;;;5044008;28;19913;-69
2023/01/31 11:08:27;;;;;;;;;;;10.00;99.90;;;;;;5046371;28;19913;-69
2023/01/31 11:10:54;;;;;;;;;;;9.80;99.90;;;;;;5046081;28;19925;-67
2023/01/31 11:13:19;;;;;;;;;;;9.80;99.90;;;;;;5036983;28;19913;-70
2023/01/31 11:15:47;;;;;;;;;;;9.80;99.90;;;;;;5040112;28;19920;-68
2023/01/31 11:18:14;;;;;;;;;;;9.70;99.90;;;;;;5039592;28;20003;-68
2023/01/31 11:20:46;;;;;;;;;;;9.60;99.90;;;;;;5036041;28;19913;-68
2023/01/31 11:23:16;;;;;;;;;;;9.50;99.90;;;;;;5047345;28;19913;-68
2023/01/31 11:25:46;;;;;;;;;;;9.70;99.90;;;;;;5044403;28;20391;-68
2023/01/31 11:28:20;;;;;;;;;;;9.60;99.90;;;;;;5038564;28;19913;-68
2023/01/31 11:30:47;;;;;;;;;;;9.70;99.90;;;;;;5040739;28;19924;-69
2023/01/31 11:33:31;;;;;;;;;;;9.90;99.90;;;;;;5038124;28;19913;-69
2023/01/31 11:35:57;;;;;;;;;;;10.00;99.90;;;;;;5043611;28;19924;-69
2023/01/31 11:38:22;;;;;;;;;;;10.20;99.90;;;;;;5044084;28;19913;-68
2023/01/31 11:40:48;;;;;;;;;;;10.40;99.90;;;;;;5044172;28;19913;-68
2023/01/31 11:43:24;;;;;;;;;;;10.50;99.90;;;;;;5047603;28;20399;-68
2023/01/31 11:45:55;;;;;;;;;;;10.30;99.90;;;;;;5045577;28;19916;-69
2023/01/31 11:48:22;;;;;;;;;;;10.50;99.90;;;;;;5039104;28;19916;-68
2023/01/31 11:50:55;;;;;;;;;;;10.60;99.90;;;;;;5047800;28;20327;-70
2023/01/31 11:53:23;;;;;;;;;;;10.70;99.90;;;;;;5043687;28;19917;-70
2023/01/31 11:55:50;;;;;;;;;;;10.70;99.90;;;;;;5045303;28;20363;-70
2023/01/31 11:58:18;;;;;;;;;;;10.70;99.90;;;;;;5041028;28;19912;-69
2023/01/31 12:00:55;;;;;;;;;;;10.70;99.90;;;;;;5040742;28;19917;-70
2023/01/31 12:03:21;;;;;;;;;;;10.60;99.90;;;;;;5047666;28;19978;-69
2023/01/31 12:05:49;;;;;;;;;;;10.30;99.90;;;;;;5038347;28;19913;-70
2023/01/31 12:08:27;;;;;;;;;;;10.20;99.90;;;;;;5050935;28;19919;-70
2023/01/31 12:10:53;;;;;;;;;;;10.00;99.90;;;;;;5042017;28;19994;-69
2023/01/31 12:13:19;;;;;;;;;;;10.10;99.90;;;;;;5048369;28;19913;-70
2023/01/31 12:15:49;;;;;;;;;;;10.10;99.90;;;;;;5051415;28;19913;-69
2023/01/31 12:18:19;;;;;;;;;;;10.20;99.90;;;;;;5046471;28;19999;-69
2023/01/31 12:20:52;;;;;;;;;;;10.40;99.90;;;;;;5043307;28;19913;-69
2023/01/31 12:23:38;;;;;;;;;;;10.40;99.90;;;;;;5043936;28;19913;-68
2023/01/31 12:26:10;;;;;;;;;;;10.10;99.90;;;;;;5048857;28;19913;-69
2023/01/31 12:28:54;;;;;;;;;;;10.10;99.90;;;;;;5044408;28;19928;-69
2023/01/31 12:31:20;;;;;;;;;;;10.50;99.90;;;;;;5043156;28;19925;-70
2023/01/31 12:33:58;;;;;;;;;;;10.60;99.90;;;;;;5046343;28;19962;-69
2023/01/31 12:36:32;;;;;;;;;;;10.80;99.90;;;;;;5034001;28;20289;-67
2023/01/31 12:39:05;;;;;;;;;;;10.90;99.90;;;;;;5041584;28;20000;-70
2023/01/31 12:41:46;;;;;;;;;;;11.10;99.90;;;;;;5040168;28;19917;-70
2023/01/31 12:44:27;;;;;;;;;;;11.30;99.90;;;;;;5050151;28;19927;-70
2023/01/31 12:47:01;;;;;;;;;;;11.60;99.90;;;;;;5047995;28;19959;-69
2023/01/31 12:49:39;;;;;;;;;;;11.60;99.90;;;;;;5043211;28;20408;-68
2023/01/31 12:52:14;;;;;;;;;;;11.60;99.90;;;;;;5040620;28;20012;-69
2023/01/31 12:54:43;;;;;;;;;;;11.20;99.90;;;;;;5048223;28;20349;-68
2023/01/31 12:57:29;;;;;;;;;;;10.90;99.90;;;;;;5047362;28;19919;-69
2023/01/31 13:00:13;;;;;;;;;;;10.70;99.90;;;;;;5042877;28;19920;-70
2023/01/31 13:02:57;;;;;;;;;;;10.60;99.90;;;;;;5039636;28;19913;-70
2023/01/31 13:05:38;;;;;;;;;;;10.70;99.90;;;;;;5043528;28;19919;-71
2023/01/31 13:08:06;;;;;;;;;;;10.60;99.90;;;;;;5045396;28;20019;-68
2023/01/31 13:10:35;;;;;;;;;;;10.50;99.90;;;;;;5048589;28;19925;-70
2023/01/31 13:13:01;;;;;;;;;;;10.50;99.90;;;;;;5036867;28;20004;-69
2023/01/31 13:15:33;;;;;;;;;;;10.50;99.90;;;;;;5038597;28;20026;-68
2023/01/31 13:18:02;;;;;;;;;;;10.60;99.90;;;;;;5039767;28;20392;-70
2023/01/31 13:20:30;;;;;;;;;;;10.70;99.90;;;;;;5043491;28;20011;-71
2023/01/31 13:22:58;;;;;;;;;;;10.80;99.90;;;;;;5043189;28;19951;-71
2023/01/31 13:25:36;;;;;;;;;;;11.10;99.90;;;;;;5046112;28;19920;-72
2023/01/31 13:28:10;;;;;;;;;;;11.30;99.90;;;;;;5044651;28;19989;-71
2023/01/31 13:30:47;;;;;;;;;;;11.30;99.90;;;;;;5045804;28;19921;-71
2023/01/31 13:33:19;;;;;;;;;;;11.30;99.90;;;;;;5047342;28;19959;-70
2023/01/31 13:35:55;;;;;;;;;;;11.20;99.90;;;;;;5046772;28;20000;-71
2023/01/31 13:38:22;;;;;;;;;;;11.10;99.90;;;;;;5046540;28;19928;-71
2023/01/31 13:40:50;;;;;;;;;;;11.20;99.90;;;;;;5042448;28;19912;-70
2023/01/31 13:43:18;;;;;;;;;;;11.20;99.90;;;;;;5042934;28;19927;-70
2023/01/31 13:45:59;;;;;;;;;;;11.50;99.90;;;;;;5047614;28;19924;-70
2023/01/31 13:48:33;;;;;;;;;;;11.50;99.90;;;;;;5041674;28;19919;-70
2023/01/31 13:51:02;;;;;;;;;;;11.20;99.90;;;;;;5039049;28;19921;-70
2023/01/31 13:53:42;;;;;;;;;;;10.90;99.90;;;;;;5045524;28;19920;-70
2023/01/31 13:56:13;;;;;;;;;;;10.70;99.90;;;;;;5043558;28;19959;-71
2023/01/31 13:58:38;;;;;;;;;;;10.80;99.90;;;;;;5043672;28;19958;-71
2023/01/31 14:01:06;;;;;;;;;;;11.20;99.90;;;;;;5048375;28;20335;-71
2023/01/31 14:03:51;;;;;;;;;;;11.90;99.90;;;;;;5045251;28;19919;-70
2023/01/31 14:06:16;;;;;;;;;;;12.20;99.90;;;;;;5039313;28;20364;-70
2023/01/31 14:08:48;;;;;;;;;;;11.70;99.90;;;;;;5043701;28;19967;-71
2023/01/31 14:11:15;;;;;;;;;;;11.70;99.90;;;;;;5036261;28;20356;-70
2023/01/31 14:13:42;;;;;;;;;;;11.60;99.90;;;;;;5041721;28;19927;-71
2023/01/31 14:16:26;;;;;;;;;;;11.50;99.90;;;;;;5040634;28;20008;-70
2023/01/31 14:18:51;;;;;;;;;;;11.20;99.90;;;;;;5039857;28;19923;-71
2023/01/31 14:21:42;;;;;;;;;;;11.00;99.90;;;;;;5041838;28;19913;-72
2023/01/31 14:24:17;;;;;;;;;;;11.30;99.90;;;;;;5033475;28;19913;-71
2023/01/31 14:26:42;;;;;;;;;;;12.00;99.90;;;;;;5038719;28;20427;-71
2023/01/31 14:29:15;;;;;;;;;;;12.60;99.90;;;;;;5049049;28;19916;-71
2023/01/31 14:31:42;;;;;;;;;;;12.80;99.90;;;;;;5042705;28;19921;-71
2023/01/31 14:34:27;;;;;;;;;;;13.00;99.90;;;;;;5072611;28;19916;-71
2023/01/31 14:36:55;;;;;;;;;;;13.50;99.90;;;;;;5059199;28;19951;-71
2023/01/31 14:39:22;;;;;;;;;;;14.20;99.90;;;;;;5074007;28;19963;-70
2023/01/31 14:41:59;;;;;;;;;;;14.60;99.90;;;;;;5068370;28;19912;-71
2023/01/31 14:44:36;;;;;;;;;;;14.90;99.90;;;;;;5068296;28;19921;-73
2023/01/31 14:47:25;;;;;;;;;;;15.10;99.90;;;;;;5064184;28;19912;-71